Time;durP1;ratioP1;P1;durP2;ratioP2;P2;SDS_P1;SDS_P2;PMS_P1;PMS_P2;Temp;Humidity;BMP_temperature;BMP_pressure;BME280_temperature;BME280_humidity;BME280_pressure;Samples;Min_cycle;Max_cycle;Signal;HPM_P1;HPM_P2
2023/07/21 00:00:14;;;;;;;4.97;3.10;;;15.20;99.90;;;;;;5115190;27;20060;-71
2023/07/21 00:02:41;;;;;;;7.28;2.55;;;15.10;99.90;;;;;;5109632;28;20038;-72
2023/07/21 00:05:07;;;;;;;5.03;2.90;;;15.10;99.90;;;;;;5105353;28;20042;-72
2023/07/21 00:07:35;;;;;;;4.82;2.78;;;15.00;99.90;;;;;;5095767;28;20809;-71
2023/07/21 00:10:07;;;;;;;7.60;3.72;;;14.90;99.90;;;;;;5108596;28;20039;-70
2023/07/21 00:12:40;;;;;;;4.82;2.60;;;15.00;99.90;;;;;;5108864;28;20036;-71
2023/07/21 00:15:06;;;;;;;6.80;3.17;;;15.00;99.90;;;;;;5104769;28;20123;-73
2023/07/21 00:17:35;;;;;;;7.97;3.00;;;15.00;99.90;;;;;;5101982;27;20100;-72
2023/07/21 00:20:10;;;;;;;7.07;2.90;;;15.10;99.90;;;;;;5101845;28;20031;-70
2023/07/21 00:22:37;;;;;;;8.00;2.80;;;15.10;99.90;;;;;;5102053;28;20027;-70
2023/07/21 00:25:05;;;;;;;3.92;2.40;;;15.20;99.90;;;;;;5110815;27;20031;-69
2023/07/21 00:27:32;;;;;;;6.90;3.15;;;15.30;99.90;;;;;;5107887;28;20531;-69
2023/07/21 00:29:58;;;;;;;8.45;3.67;;;15.30;99.90;;;;;;5108454;28;20480;-72
2023/07/21 00:32:24;;;;;;;7.97;2.90;;;15.40;99.90;;;;;;5107635;28;20035;-70
2023/07/21 00:34:51;;;;;;;6.18;2.72;;;15.30;99.90;;;;;;5108348;28;20032;-71
2023/07/21 00:37:17;;;;;;;7.82;3.00;;;15.20;99.90;;;;;;5099139;28;20039;-66
2023/07/21 00:39:44;;;;;;;5.00;2.92;;;15.20;99.90;;;;;;5108182;28;20595;-70
2023/07/21 00:42:11;;;;;;;5.40;3.10;;;15.10;99.90;;;;;;5108950;28;20032;-72
2023/07/21 00:44:36;;;;;;;5.93;3.08;;;15.20;99.90;;;;;;5088022;28;20238;-72
2023/07/21 00:47:03;;;;;;;11.05;3.05;;;15.30;99.90;;;;;;5108671;28;20505;-70
2023/07/21 00:49:31;;;;;;;8.85;2.67;;;15.40;99.90;;;;;;5107879;28;20058;-73
2023/07/21 00:51:57;;;;;;;9.02;3.00;;;15.40;99.90;;;;;;5082546;27;20508;-70
2023/07/21 00:54:23;;;;;;;5.40;2.80;;;15.40;99.90;;;;;;5110493;27;20114;-72
2023/07/21 00:56:49;;;;;;;3.85;2.65;;;15.30;99.90;;;;;;5106020;28;20050;-70
2023/07/21 00:59:14;;;;;;;6.35;2.75;;;15.30;99.90;;;;;;5107651;28;20032;-70
2023/07/21 01:01:40;;;;;;;5.50;2.90;;;15.40;99.90;;;;;;5107848;27;20046;-71
2023/07/21 01:04:07;;;;;;;6.43;2.83;;;15.30;99.90;;;;;;5110670;27;20040;-70
2023/07/21 01:06:34;;;;;;;7.35;3.25;;;15.40;99.90;;;;;;5106891;28;20122;-72
2023/07/21 01:09:04;;;;;;;6.25;2.85;;;15.40;99.90;;;;;;5108288;28;20032;-70
2023/07/21 01:11:30;;;;;;;4.95;2.83;;;15.40;99.90;;;;;;5107424;28;20039;-69
2023/07/21 01:13:59;;;;;;;7.60;3.20;;;15.40;99.90;;;;;;5107555;28;20492;-70
2023/07/21 01:16:26;;;;;;;5.25;3.10;;;15.20;99.90;;;;;;5105628;28;20082;-70
2023/07/21 01:18:53;;;;;;;4.80;2.83;;;15.10;99.90;;;;;;5107875;28;20032;-70
2023/07/21 01:21:39;;;;;;;7.22;3.20;;;15.00;99.90;;;;;;5106833;28;20047;-68
2023/07/21 01:24:09;;;;;;;8.48;3.45;;;15.00;99.90;;;;;;5112752;27;20491;-69
2023/07/21 01:26:39;;;;;;;4.55;2.50;;;15.10;99.90;;;;;;5105459;28;20028;-72
2023/07/21 01:29:07;;;;;;;5.22;2.90;;;15.10;99.90;;;;;;5102325;27;20039;-69
2023/07/21 01:31:35;;;;;;;4.95;3.10;;;15.20;99.90;;;;;;5099372;28;20032;-70
2023/07/21 01:34:01;;;;;;;6.38;3.15;;;15.20;99.90;;;;;;5107165;28;20114;-70
2023/07/21 01:36:29;;;;;;;7.50;3.35;;;15.30;99.90;;;;;;5105052;28;20031;-71
2023/07/21 01:38:55;;;;;;;6.95;3.03;;;15.40;99.90;;;;;;5107981;28;20032;-70
2023/07/21 01:41:21;;;;;;;10.50;3.10;;;15.30;99.90;;;;;;5106579;28;20901;-65
2023/07/21 01:43:48;;;;;;;8.88;3.30;;;15.30;99.90;;;;;;5107007;28;20028;-70
2023/07/21 01:46:13;;;;;;;7.18;3.10;;;15.30;99.90;;;;;;5106503;28;20108;-71
2023/07/21 01:48:39;;;;;;;5.80;3.25;;;15.30;99.90;;;;;;5107428;28;20670;-72
2023/07/21 01:51:06;;;;;;;5.75;3.03;;;15.20;99.90;;;;;;5106415;28;20456;-65
2023/07/21 01:53:35;;;;;;;5.88;2.97;;;15.20;99.90;;;;;;5114599;27;20023;-72
2023/07/21 01:56:12;;;;;;;6.63;2.90;;;15.10;99.90;;;;;;5107128;28;20035;-71
2023/07/21 01:58:40;;;;;;;5.40;3.00;;;15.00;99.90;;;;;;5107178;28;20070;-70
2023/07/21 02:01:06;;;;;;;6.03;3.58;;;15.00;99.90;;;;;;5088550;28;20100;-70
2023/07/21 02:03:34;;;;;;;8.07;3.30;;;15.10;99.90;;;;;;5106252;28;20717;-71
2023/07/21 02:05:59;;;;;;;6.60;3.28;;;15.20;99.90;;;;;;5106400;28;20032;-72
2023/07/21 02:08:25;;;;;;;4.25;2.95;;;15.10;99.90;;;;;;5106832;28;20039;-70
2023/07/21 02:10:52;;;;;;;5.20;2.85;;;15.10;99.90;;;;;;5105589;28;20039;-72
2023/07/21 02:13:17;;;;;;;5.07;3.10;;;15.10;99.90;;;;;;5105035;28;20086;-72
2023/07/21 02:15:43;;;;;;;4.07;2.67;;;15.00;99.90;;;;;;5107338;28;20183;-71
2023/07/21 02:18:09;;;;;;;7.45;3.28;;;14.90;99.90;;;;;;5106412;28;20032;-72
2023/07/21 02:20:34;;;;;;;5.55;3.15;;;14.80;99.90;;;;;;5105420;28;20031;-70
2023/07/21 02:23:00;;;;;;;9.18;3.13;;;14.80;99.90;;;;;;5112191;28;20063;-73
2023/07/21 02:25:26;;;;;;;6.00;3.50;;;14.80;99.90;;;;;;5113709;28;20490;-67
2023/07/21 02:27:51;;;;;;;9.38;3.55;;;14.70;99.90;;;;;;5106223;28;20137;-70
2023/07/21 02:30:17;;;;;;;4.93;3.20;;;14.80;99.90;;;;;;5107412;28;20606;-72
2023/07/21 02:32:43;;;;;;;7.20;3.25;;;14.80;99.90;;;;;;5084571;28;20088;-73
2023/07/21 02:35:09;;;;;;;5.93;3.20;;;14.90;99.90;;;;;;5105642;28;20038;-73
2023/07/21 02:37:36;;;;;;;6.88;3.67;;;14.90;99.90;;;;;;5113653;28;20055;-69
2023/07/21 02:40:03;;;;;;;5.28;3.15;;;14.90;99.90;;;;;;5106168;28;20042;-71
2023/07/21 02:42:30;;;;;;;6.07;3.28;;;14.90;99.90;;;;;;5110349;28;20066;-72
2023/07/21 02:44:55;;;;;;;5.70;3.33;;;15.00;99.90;;;;;;5111576;28;20055;-73
2023/07/21 02:47:21;;;;;;;8.07;3.20;;;14.90;99.90;;;;;;5111230;28;20512;-71
2023/07/21 02:49:47;;;;;;;9.88;3.50;;;14.60;99.90;;;;;;5109660;28;20044;-72
2023/07/21 02:52:12;;;;;;;5.57;3.15;;;14.50;99.90;;;;;;5109955;27;20024;-72
2023/07/21 02:54:38;;;;;;;5.35;3.10;;;14.40;99.90;;;;;;5109681;27;20023;-69
2023/07/21 02:57:05;;;;;;;10.52;3.53;;;14.40;99.90;;;;;;5104933;28;20447;-70
2023/07/21 02:59:30;;;;;;;5.30;3.22;;;14.40;99.90;;;;;;5107736;28;20082;-73
2023/07/21 03:01:57;;;;;;;8.93;2.97;;;14.50;99.90;;;;;;5113663;27;20761;-71
2023/07/21 03:04:26;;;;;;;4.30;3.00;;;14.50;99.90;;;;;;5117398;27;20035;-72
2023/07/21 03:06:52;;;;;;;6.78;3.22;;;14.50;99.90;;;;;;5100032;28;20096;-71
2023/07/21 03:09:18;;;;;;;7.75;3.30;;;14.50;99.90;;;;;;5108468;28;20036;-69
2023/07/21 03:11:44;;;;;;;7.00;3.13;;;14.60;99.90;;;;;;5107967;28;20289;-69
2023/07/21 03:14:10;;;;;;;6.53;3.28;;;14.70;99.90;;;;;;5090719;28;20040;-73
2023/07/21 03:16:36;;;;;;;8.90;3.40;;;14.70;99.90;;;;;;5087041;28;20047;-70
2023/07/21 03:19:02;;;;;;;6.15;3.50;;;14.80;99.90;;;;;;5102113;28;20032;-69
2023/07/21 03:21:28;;;;;;;6.72;3.17;;;14.80;99.90;;;;;;5101593;28;20032;-68
2023/07/21 03:23:53;;;;;;;4.82;3.28;;;14.90;99.90;;;;;;5099094;27;20030;-69
2023/07/21 03:26:20;;;;;;;9.60;3.75;;;15.00;99.90;;;;;;5104766;28;20127;-67
2023/07/21 03:28:45;;;;;;;4.78;2.90;;;15.10;99.90;;;;;;5100923;27;20024;-70
2023/07/21 03:31:12;;;;;;;6.88;3.65;;;15.10;99.90;;;;;;5108823;28;20034;-70
2023/07/21 03:33:37;;;;;;;6.57;3.08;;;15.10;99.90;;;;;;5104115;28;20023;-70
2023/07/21 03:36:04;;;;;;;5.70;3.15;;;15.10;99.90;;;;;;5104376;28;20029;-70
2023/07/21 03:38:33;;;;;;;9.43;3.30;;;15.20;99.90;;;;;;5106965;28;20046;-68
2023/07/21 03:41:04;;;;;;;6.63;3.35;;;15.20;99.90;;;;;;5103984;28;20103;-71
2023/07/21 03:43:29;;;;;;;7.68;3.40;;;15.20;99.90;;;;;;5105249;28;20480;-67
2023/07/21 03:45:59;;;;;;;6.05;3.40;;;15.10;99.90;;;;;;5107874;28;20073;-70
2023/07/21 03:48:29;;;;;;;7.57;3.00;;;15.10;99.90;;;;;;5101378;28;20039;-71
2023/07/21 03:51:01;;;;;;;6.28;3.20;;;15.00;99.90;;;;;;5095933;28;20036;-70
2023/07/21 03:53:28;;;;;;;3.60;2.88;;;15.00;99.90;;;;;;5109185;28;20480;-68
2023/07/21 03:55:54;;;;;;;7.32;3.33;;;15.00;99.90;;;;;;5099852;27;20114;-70
2023/07/21 03:58:20;;;;;;;6.72;3.30;;;15.10;99.90;;;;;;5111696;27;20935;-65
2023/07/21 04:00:45;;;;;;;6.90;3.17;;;15.00;99.90;;;;;;5088124;28;20483;-70
2023/07/21 04:03:12;;;;;;;4.82;2.92;;;15.00;99.90;;;;;;5111495;28;20053;-68
2023/07/21 04:05:38;;;;;;;5.00;3.30;;;15.00;99.90;;;;;;5108163;28;20036;-68
2023/07/21 04:08:04;;;;;;;6.30;3.10;;;15.10;99.90;;;;;;5086019;27;20038;-66
2023/07/21 04:10:34;;;;;;;6.13;3.22;;;15.10;99.90;;;;;;5113582;27;20034;-67
2023/07/21 04:13:00;;;;;;;8.05;3.20;;;15.10;99.90;;;;;;5108574;28;20377;-69
2023/07/21 04:15:26;;;;;;;6.38;3.38;;;15.10;99.90;;;;;;5108977;28;20071;-69
2023/07/21 04:17:55;;;;;;;5.13;3.08;;;15.00;99.90;;;;;;5107607;28;20038;-67
2023/07/21 04:20:23;;;;;;;6.72;3.17;;;15.00;99.90;;;;;;5109576;28;20084;-69
2023/07/21 04:22:50;;;;;;;6.32;3.63;;;14.90;99.90;;;;;;5108493;28;20027;-68
2023/07/21 04:25:17;;;;;;;10.43;3.13;;;14.90;99.90;;;;;;5111592;27;20027;-68
2023/07/21 04:27:45;;;;;;;8.15;3.60;;;14.80;99.90;;;;;;5106437;28;20076;-70
2023/07/21 04:30:11;;;;;;;6.57;3.33;;;14.70;99.90;;;;;;5108090;28;20552;-68
2023/07/21 04:32:39;;;;;;;5.80;3.17;;;14.60;99.90;;;;;;5105660;28;20104;-71
2023/07/21 04:35:08;;;;;;;7.78;3.63;;;14.70;99.90;;;;;;5108810;28;20039;-68
2023/07/21 04:37:37;;;;;;;7.85;4.43;;;14.90;99.90;;;;;;5107692;28;20055;-70
2023/07/21 04:40:06;;;;;;;12.20;4.38;;;15.10;99.90;;;;;;5108070;28;20028;-68
2023/07/21 04:42:36;;;;;;;12.68;3.88;;;15.30;99.90;;;;;;5113690;27;20088;-66
2023/07/21 04:45:02;;;;;;;5.88;3.10;;;15.40;99.90;;;;;;5108185;28;20038;-70
2023/07/21 04:47:27;;;;;;;8.18;3.78;;;15.60;99.90;;;;;;5105642;28;20040;-71
2023/07/21 04:49:53;;;;;;;9.45;4.05;;;15.80;99.90;;;;;;5107504;28;20044;-69
2023/07/21 04:52:19;;;;;;;7.88;4.47;;;15.90;99.90;;;;;;5104383;28;20503;-66
2023/07/21 04:54:45;;;;;;;8.20;4.00;;;15.90;99.90;;;;;;5101978;27;20040;-66
2023/07/21 04:57:11;;;;;;;11.38;4.80;;;16.10;99.90;;;;;;5105781;28;20173;-68
2023/07/21 04:59:37;;;;;;;9.07;5.65;;;16.10;99.90;;;;;;5100475;28;20024;-68
2023/07/21 05:02:03;;;;;;;8.68;4.35;;;16.20;99.90;;;;;;5106724;28;20070;-69
2023/07/21 05:04:29;;;;;;;8.07;4.20;;;16.40;99.90;;;;;;5109129;27;20061;-68
2023/07/21 05:06:54;;;;;;;6.30;4.25;;;16.40;99.90;;;;;;5104810;27;20503;-70
2023/07/21 05:09:20;;;;;;;7.15;3.92;;;16.50;99.90;;;;;;5105053;28;20114;-69
2023/07/21 05:11:46;;;;;;;8.82;4.07;;;16.60;99.90;;;;;;5103968;27;20023;-68
2023/07/21 05:14:14;;;;;;;8.50;4.50;;;16.70;99.90;;;;;;5105998;28;20032;-69
2023/07/21 05:16:41;;;;;;;12.63;4.55;;;16.80;99.90;;;;;;5106839;28;20552;-67
2023/07/21 05:19:08;;;;;;;10.10;5.28;;;16.90;99.90;;;;;;5104894;28;20031;-67
2023/07/21 05:21:35;;;;;;;12.95;6.05;;;16.90;99.90;;;;;;5107740;27;20035;-65
2023/07/21 05:24:02;;;;;;;8.57;5.70;;;16.70;99.90;;;;;;5089955;27;20484;-67
2023/07/21 05:26:28;;;;;;;10.77;5.68;;;16.60;99.90;;;;;;5088314;28;20463;-70
2023/07/21 05:28:55;;;;;;;8.95;5.00;;;16.50;99.90;;;;;;5103346;28;20945;-67
2023/07/21 05:31:22;;;;;;;7.55;3.97;;;16.50;99.90;;;;;;5107565;28;20031;-69
2023/07/21 05:33:48;;;;;;;10.43;5.47;;;16.60;99.90;;;;;;5103740;28;20047;-67
2023/07/21 05:36:14;;;;;;;7.97;4.93;;;16.70;99.90;;;;;;5109072;27;20039;-67
2023/07/21 05:38:40;;;;;;;9.35;4.88;;;16.70;99.90;;;;;;5103570;27;20059;-66
2023/07/21 05:41:06;;;;;;;9.13;4.95;;;16.80;99.90;;;;;;5106756;28;20031;-67
2023/07/21 05:43:32;;;;;;;8.13;5.03;;;16.80;99.90;;;;;;5105690;28;20032;-65
2023/07/21 05:45:58;;;;;;;8.63;5.32;;;16.90;99.90;;;;;;5107331;28;20542;-67
2023/07/21 05:48:27;;;;;;;8.68;5.05;;;16.90;99.90;;;;;;5105782;28;20100;-67
2023/07/21 05:50:53;;;;;;;10.68;4.72;;;16.90;99.90;;;;;;5108156;27;20100;-65
2023/07/21 05:53:22;;;;;;;9.50;4.88;;;16.80;99.90;;;;;;5108486;28;20024;-67
2023/07/21 05:55:47;;;;;;;8.40;4.95;;;16.70;99.90;;;;;;5114164;27;20088;-69
2023/07/21 05:58:13;;;;;;;9.52;5.07;;;16.60;99.90;;;;;;5087499;28;20031;-66
2023/07/21 06:00:39;;;;;;;9.68;5.10;;;16.50;99.90;;;;;;5104589;27;20039;-65
2023/07/21 06:03:06;;;;;;;10.88;4.88;;;16.50;99.90;;;;;;5104979;28;20537;-65
2023/07/21 06:05:36;;;;;;;12.63;4.55;;;16.60;99.90;;;;;;5101784;28;20036;-65
2023/07/21 06:08:04;;;;;;;8.70;3.78;;;16.60;99.90;;;;;;5087624;28;20314;-69
2023/07/21 06:10:31;;;;;;;6.90;4.60;;;16.70;99.90;;;;;;5104272;28;20023;-67
2023/07/21 06:12:57;;;;;;;12.02;4.10;;;16.90;99.90;;;;;;5102268;28;20024;-70
2023/07/21 06:15:26;;;;;;;6.90;4.30;;;17.20;99.90;;;;;;5105999;28;20032;-68
2023/07/21 06:17:52;;;;;;;10.45;4.13;;;17.40;99.90;;;;;;5100459;28;20570;-69
2023/07/21 06:20:24;;;;;;;8.88;4.38;;;17.70;99.90;;;;;;5111107;27;20031;-68
2023/07/21 06:22:52;;;;;;;8.45;4.05;;;17.90;99.90;;;;;;5103398;27;20268;-70
2023/07/21 06:25:20;;;;;;;6.47;3.92;;;18.10;99.90;;;;;;5104812;28;20110;-69
2023/07/21 06:27:50;;;;;;;7.13;3.90;;;18.40;99.90;;;;;;5117588;27;20042;-70
2023/07/21 06:30:16;;;;;;;8.10;4.43;;;18.60;99.90;;;;;;5110600;28;20031;-67
2023/07/21 06:32:42;;;;;;;7.72;3.97;;;18.80;99.90;;;;;;5108111;28;20081;-68
2023/07/21 06:35:08;;;;;;;8.10;3.80;;;18.90;99.90;;;;;;5109372;28;20028;-70
2023/07/21 06:37:34;;;;;;;6.32;3.53;;;18.90;99.90;;;;;;5100678;28;20553;-66
2023/07/21 06:40:01;;;;;;;9.52;3.42;;;19.00;99.90;;;;;;5109653;28;20028;-67
2023/07/21 06:42:27;;;;;;;6.53;3.15;;;19.10;99.90;;;;;;5092469;28;20416;-69
2023/07/21 06:44:53;;;;;;;4.53;2.78;;;19.20;99.90;;;;;;5109118;28;20024;-66
2023/07/21 06:47:19;;;;;;;9.63;3.03;;;19.40;99.90;;;;;;5100517;28;20032;-71
2023/07/21 06:49:45;;;;;;;5.65;2.80;;;19.40;99.90;;;;;;5108013;28;20048;-68
2023/07/21 06:52:11;;;;;;;10.23;3.22;;;19.50;99.90;;;;;;5110871;27;20088;-68
2023/07/21 06:54:38;;;;;;;8.52;2.72;;;19.60;99.90;;;;;;5089375;28;20546;-69
2023/07/21 06:57:05;;;;;;;5.25;2.78;;;19.80;99.90;;;;;;5109247;28;20038;-70
2023/07/21 06:59:31;;;;;;;11.40;3.28;;;20.10;99.90;;;;;;5115403;27;20047;-68
2023/07/21 07:01:57;;;;;;;8.77;2.80;;;20.20;99.90;;;;;;5107208;28;20032;-68
2023/07/21 07:04:25;;;;;;;4.88;2.85;;;20.10;99.90;;;;;;5107988;28;20039;-68
2023/07/21 07:06:52;;;;;;;7.97;3.20;;;20.00;99.90;;;;;;5107960;28;20095;-70
2023/07/21 07:09:17;;;;;;;6.75;2.88;;;19.90;99.90;;;;;;5109381;28;20085;-69
2023/07/21 07:11:43;;;;;;;5.63;2.75;;;19.90;99.90;;;;;;5108083;28;20039;-69
2023/07/21 07:14:10;;;;;;;7.68;2.70;;;19.80;99.90;;;;;;5105498;28;20102;-70
2023/07/21 07:16:36;;;;;;;6.15;3.00;;;19.90;99.90;;;;;;5106620;28;20031;-70
2023/07/21 07:19:04;;;;;;;3.83;2.45;;;20.10;99.90;;;;;;5107398;28;20046;-70
2023/07/21 07:21:30;;;;;;;8.02;3.03;;;20.40;99.90;;;;;;5115469;27;20096;-68
2023/07/21 07:23:55;;;;;;;9.80;3.08;;;20.60;99.20;;;;;;5117029;27;20558;-71
2023/07/21 07:26:21;;;;;;;6.60;2.90;;;20.90;99.90;;;;;;5107290;28;20031;-69
2023/07/21 07:28:47;;;;;;;4.55;3.00;;;21.00;99.80;;;;;;5109093;28;20128;-71
2023/07/21 07:31:13;;;;;;;5.60;2.83;;;21.20;99.90;;;;;;5088477;28;20031;-67
2023/07/21 07:33:40;;;;;;;5.15;2.60;;;21.40;98.70;;;;;;5108479;28;20407;-71
2023/07/21 07:36:05;;;;;;;5.00;2.58;;;21.40;96.60;;;;;;5108421;28;20039;-66
2023/07/21 07:38:32;;;;;;;6.47;2.85;;;21.40;96.80;;;;;;5111184;27;20031;-65
2023/07/21 07:41:03;;;;;;;7.95;3.28;;;21.40;97.10;;;;;;5109110;28;20646;-70
2023/07/21 07:43:29;;;;;;;6.95;2.75;;;21.40;97.50;;;;;;5085269;28;20032;-71
2023/07/21 07:45:57;;;;;;;8.13;3.13;;;21.50;98.00;;;;;;5104175;28;20134;-67
2023/07/21 07:48:23;;;;;;;12.05;3.08;;;21.60;96.70;;;;;;5106606;28;20063;-67
2023/07/21 07:50:51;;;;;;;8.68;2.80;;;21.50;96.60;;;;;;5108011;28;20145;-70
2023/07/21 07:53:17;;;;;;;3.97;2.70;;;21.40;96.80;;;;;;5105793;28;20143;-70
2023/07/21 07:55:44;;;;;;;4.30;2.70;;;21.50;96.70;;;;;;5106539;27;20035;-74
2023/07/21 07:58:10;;;;;;;7.90;2.50;;;21.50;96.50;;;;;;5107939;27;20096;-70
2023/07/21 08:00:38;;;;;;;6.05;2.78;;;21.60;94.90;;;;;;5105892;28;20099;-70
2023/07/21 08:03:06;;;;;;;4.85;2.28;;;21.70;97.20;;;;;;5105134;28;20024;-71
2023/07/21 08:05:35;;;;;;;4.25;2.08;;;21.90;94.80;;;;;;5107546;28;20045;-70
2023/07/21 08:08:06;;;;;;;5.90;2.25;;;22.00;96.50;;;;;;5109766;27;20402;-70
2023/07/21 08:10:33;;;;;;;5.63;2.03;;;22.20;93.10;;;;;;5104483;28;20143;-69
2023/07/21 08:13:00;;;;;;;3.13;2.03;;;22.20;94.40;;;;;;5106517;27;20028;-68
2023/07/21 08:15:26;;;;;;;3.58;2.20;;;22.20;93.20;;;;;;5107560;28;20039;-66
2023/07/21 08:17:53;;;;;;;8.55;2.38;;;22.10;92.80;;;;;;5102592;28;20038;-66
2023/07/21 08:20:19;;;;;;;4.88;2.00;;;22.20;93.90;;;;;;5097794;28;20472;-68
2023/07/21 08:22:46;;;;;;;8.38;2.75;;;22.10;92.50;;;;;;5102976;27;20027;-70
2023/07/21 08:25:12;;;;;;;8.38;2.22;;;22.00;92.50;;;;;;5111760;27;20036;-65
2023/07/21 08:27:38;;;;;;;7.28;2.70;;;22.00;93.50;;;;;;5107279;28;20108;-70
2023/07/21 08:30:07;;;;;;;4.93;2.55;;;22.00;93.80;;;;;;5103622;27;20126;-69
2023/07/21 08:32:33;;;;;;;3.38;2.20;;;21.90;93.70;;;;;;5105337;28;20024;-68
2023/07/21 08:34:59;;;;;;;4.88;2.25;;;21.80;94.00;;;;;;5106824;28;20046;-71
2023/07/21 08:37:24;;;;;;;4.88;2.13;;;21.70;93.30;;;;;;5107495;27;20108;-70
2023/07/21 08:39:50;;;;;;;4.45;2.08;;;21.70;93.90;;;;;;5107136;28;20731;-72
2023/07/21 08:42:17;;;;;;;5.40;2.05;;;21.70;94.00;;;;;;5107092;28;20036;-71
2023/07/21 08:44:45;;;;;;;8.38;2.10;;;21.70;93.60;;;;;;5104901;28;20035;-72
2023/07/21 08:47:11;;;;;;;4.95;2.15;;;21.80;94.60;;;;;;5105475;27;20031;-73
2023/07/21 08:49:39;;;;;;;5.10;2.08;;;21.90;92.80;;;;;;5105013;28;20060;-70
2023/07/21 08:52:05;;;;;;;4.03;1.67;;;21.90;92.10;;;;;;5106738;28;20324;-70
2023/07/21 08:54:37;;;;;;;4.75;2.15;;;21.90;91.50;;;;;;5112241;27;20077;-66
2023/07/21 08:57:03;;;;;;;4.25;2.40;;;22.10;92.50;;;;;;5106223;28;20039;-70
2023/07/21 08:59:29;;;;;;;3.92;1.88;;;22.20;92.10;;;;;;5105348;28;20035;-75
2023/07/21 09:01:54;;;;;;;3.75;1.95;;;22.20;93.20;;;;;;5105670;28;20431;-75
2023/07/21 09:04:25;;;;;;;3.20;2.25;;;22.30;92.40;;;;;;5105903;28;20023;-69
2023/07/21 09:06:56;;;;;;;3.20;2.22;;;22.30;92.50;;;;;;5106038;28;20031;-70
2023/07/21 09:09:23;;;;;;;7.78;2.30;;;22.50;92.40;;;;;;5109840;27;20038;-72
2023/07/21 09:11:49;;;;;;;6.57;2.33;;;22.60;91.50;;;;;;5084907;28;20169;-72
2023/07/21 09:14:18;;;;;;;3.40;1.95;;;22.70;90.90;;;;;;5103325;27;20019;-70
2023/07/21 09:16:46;;;;;;;5.18;2.28;;;22.70;90.90;;;;;;5108753;27;20468;-72
2023/07/21 09:19:12;;;;;;;7.07;2.28;;;22.50;91.20;;;;;;5106389;27;20059;-71
2023/07/21 09:21:37;;;;;;;8.80;2.10;;;22.70;92.00;;;;;;5103329;28;20059;-72
2023/07/21 09:24:05;;;;;;;5.20;2.15;;;22.80;91.00;;;;;;5109309;27;20023;-67
2023/07/21 09:26:31;;;;;;;8.38;2.67;;;23.00;90.00;;;;;;5103937;28;20146;-65
2023/07/21 09:28:58;;;;;;;5.45;2.35;;;23.00;89.50;;;;;;5101015;28;20031;-70
2023/07/21 09:31:33;;;;;;;5.55;2.08;;;23.00;88.50;;;;;;5108522;27;20070;-67
2023/07/21 09:34:12;;;;;;;3.03;1.80;;;23.10;89.90;;;;;;5106791;27;20037;-70
2023/07/21 09:36:44;;;;;;;5.50;2.17;;;23.40;87.20;;;;;;5105734;27;20050;-70
2023/07/21 09:39:15;;;;;;;6.57;2.03;;;23.50;85.20;;;;;;5107920;28;20392;-68
2023/07/21 09:41:42;;;;;;;10.80;2.25;;;23.80;85.40;;;;;;5098949;28;20113;-67
2023/07/21 09:44:09;;;;;;;3.72;1.92;;;23.90;82.00;;;;;;5107888;28;20032;-69
2023/07/21 09:46:35;;;;;;;3.92;2.00;;;23.80;81.90;;;;;;5106592;27;20023;-70
2023/07/21 09:49:01;;;;;;;4.97;2.03;;;23.60;81.10;;;;;;5106760;28;20114;-68
2023/07/21 09:51:29;;;;;;;6.65;1.95;;;23.60;80.40;;;;;;5103546;28;20033;-71
2023/07/21 09:53:57;;;;;;;10.98;2.20;;;23.80;83.30;;;;;;5105357;27;20022;-68
2023/07/21 09:56:26;;;;;;;7.70;2.35;;;23.90;81.60;;;;;;5110018;28;20071;-71
2023/07/21 09:58:57;;;;;;;5.88;2.42;;;24.20;85.20;;;;;;5106958;28;20076;-70
2023/07/21 10:01:25;;;;;;;2.40;1.73;;;24.60;79.40;;;;;;5104656;28;20039;-70
2023/07/21 10:03:52;;;;;;;5.75;2.00;;;24.50;78.10;;;;;;5106095;28;20457;-71
2023/07/21 10:06:22;;;;;;;3.45;1.80;;;24.30;78.80;;;;;;5104713;28;20032;-71
2023/07/21 10:08:50;;;;;;;10.73;2.22;;;24.70;80.80;;;;;;5104126;28;20168;-73
2023/07/21 10:11:19;;;;;;;4.28;2.20;;;25.20;81.10;;;;;;5098704;28;20107;-71
2023/07/21 10:13:47;;;;;;;5.25;2.17;;;25.20;80.10;;;;;;5099471;28;20032;-68
2023/07/21 10:16:14;;;;;;;3.80;2.30;;;25.00;78.30;;;;;;5103428;28;20059;-68
2023/07/21 10:19:08;;;;;;;5.15;2.15;;;24.90;78.80;;;;;;5100925;28;20047;-71
2023/07/21 10:21:51;;;;;;;5.38;2.58;;;25.00;80.10;;;;;;5104735;28;20173;-71
2023/07/21 10:24:32;;;;;;;9.20;2.42;;;25.40;78.00;;;;;;5105914;28;20035;-71
2023/07/21 10:27:05;;;;;;;15.68;2.75;;;26.00;77.10;;;;;;5103688;28;20159;-71
2023/07/21 10:29:31;;;;;;;3.80;2.50;;;26.30;76.30;;;;;;5099633;28;20030;-70
2023/07/21 10:31:59;;;;;;;3.85;2.20;;;26.10;76.00;;;;;;5104606;28;20099;-71
2023/07/21 10:34:26;;;;;;;2.90;2.08;;;25.50;76.20;;;;;;5100414;28;20051;-72
2023/07/21 10:36:52;;;;;;;7.43;2.13;;;25.10;76.00;;;;;;5107658;28;20127;-71
2023/07/21 10:39:22;;;;;;;4.55;2.40;;;25.00;77.70;;;;;;5106932;28;20511;-72
2023/07/21 10:42:12;;;;;;;3.70;2.25;;;24.90;78.20;;;;;;5106516;28;20036;-75
2023/07/21 10:44:43;;;;;;;;;;;25.30;77.30;;;;;;5106456;28;20047;-71
2023/07/21 10:47:14;;;;;;;4.70;2.08;;;25.80;77.70;;;;;;5105391;28;19954;-71
2023/07/21 10:49:40;;;;;;;4.10;2.20;;;26.30;75.30;;;;;;5097189;28;20047;-69
2023/07/21 10:52:06;;;;;;;3.08;2.00;;;26.60;70.00;;;;;;5102191;28;20036;-71
2023/07/21 10:54:32;;;;;;;9.63;2.00;;;26.20;70.90;;;;;;5097069;28;20750;-71
2023/07/21 10:56:59;;;;;;;5.15;2.33;;;25.90;70.40;;;;;;5101218;28;20039;-72
2023/07/21 10:59:25;;;;;;;3.97;1.92;;;25.10;74.20;;;;;;5109651;28;20545;-69
2023/07/21 11:01:54;;;;;;;7.18;2.38;;;24.80;75.70;;;;;;5097001;28;20031;-72
2023/07/21 11:04:21;;;;;;;6.88;2.90;;;25.20;75.30;;;;;;5108556;28;20066;-71
2023/07/21 11:06:59;;;;;;;7.13;2.65;;;25.50;78.20;;;;;;5108451;28;20036;-71
2023/07/21 11:09:26;;;;;;;7.95;2.72;;;26.20;79.00;;;;;;5105036;27;20023;-72
2023/07/21 11:11:54;;;;;;;11.52;2.72;;;26.90;75.10;;;;;;5099569;28;20147;-72
2023/07/21 11:17:00;;;;;;;9.50;2.65;;;26.80;69.20;;;;;;5232065;22;20365;-63
2023/07/21 11:19:28;;;;;;;3.63;2.33;;;26.90;71.10;;;;;;5020420;28;20121;-67
2023/07/21 11:21:54;;;;;;;9.10;2.38;;;27.10;71.10;;;;;;5029670;28;20029;-67
2023/07/21 11:24:25;;;;;;;5.47;2.38;;;27.20;69.70;;;;;;5029044;28;20077;-68
2023/07/21 11:26:54;;;;;;;4.50;2.00;;;26.50;70.50;;;;;;5027105;28;20033;-68
2023/07/21 11:29:20;;;;;;;3.03;2.10;;;25.90;72.30;;;;;;5030218;28;20025;-67
2023/07/21 11:31:46;;;;;;;5.43;2.13;;;26.00;73.60;;;;;;5024357;28;20451;-67
2023/07/21 11:34:20;;;;;;;3.28;2.10;;;26.40;70.30;;;;;;5028052;28;20511;-68
2023/07/21 11:36:49;;;;;;;2.88;2.20;;;26.10;73.10;;;;;;5027796;28;20235;-67
2023/07/21 11:39:19;;;;;;;7.43;2.38;;;26.30;72.00;;;;;;5021067;28;20550;-68
2023/07/21 11:41:49;;;;;;;;;;;25.80;71.50;;;;;;5028994;28;20037;-66
2023/07/21 11:44:20;;;;;;;6.35;1.95;;;25.80;74.60;;;;;;5021407;28;20297;-66
2023/07/21 11:47:16;;;;;;;3.78;2.38;;;26.30;72.70;;;;;;5022891;28;20045;-67
2023/07/21 11:49:47;;;;;;;6.50;2.40;;;26.30;71.10;;;;;;5013156;28;20083;-67
2023/07/21 11:52:26;;;;;;;6.30;2.58;;;26.50;69.90;;;;;;5027883;28;20041;-68
2023/07/21 11:54:53;;;;;;;4.45;2.05;;;26.10;71.50;;;;;;5021516;28;20045;-66
2023/07/21 11:57:19;;;;;;;3.80;2.17;;;25.50;73.40;;;;;;5027825;28;20349;-69
2023/07/21 11:59:45;;;;;;;4.40;2.25;;;25.30;72.50;;;;;;5028266;28;20033;-66
2023/07/21 12:02:14;;;;;;;3.17;2.10;;;25.20;69.60;;;;;;5014469;28;20103;-69
2023/07/21 12:04:40;;;;;;;7.15;2.13;;;25.00;72.70;;;;;;5019961;28;20034;-69
2023/07/21 12:07:08;;;;;;;4.97;2.47;;;24.70;71.00;;;;;;5016172;28;20167;-68
2023/07/21 12:09:34;;;;;;;8.55;2.03;;;24.50;74.10;;;;;;5024599;28;20038;-67
2023/07/21 12:11:59;;;;;;;8.95;2.17;;;24.50;73.60;;;;;;5023923;28;20056;-69
2023/07/21 12:14:25;;;;;;;3.13;1.90;;;24.70;73.10;;;;;;5017751;28;20034;-68
2023/07/21 12:16:55;;;;;;;4.03;2.03;;;24.80;72.50;;;;;;5024050;28;20041;-69
2023/07/21 12:19:24;;;;;;;3.83;2.22;;;25.00;73.60;;;;;;5018676;28;20188;-68
2023/07/21 12:21:51;;;;;;;5.90;2.35;;;25.20;72.20;;;;;;5022949;28;20545;-66
2023/07/21 12:24:17;;;;;;;8.88;1.90;;;25.30;68.90;;;;;;5024264;28;20057;-68
2023/07/21 12:26:43;;;;;;;4.75;1.98;;;25.20;69.70;;;;;;5018406;28;20033;-66
2023/07/21 12:29:11;;;;;;;4.10;1.98;;;24.80;70.90;;;;;;5020482;28;20395;-68
2023/07/21 12:31:37;;;;;;;11.00;2.00;;;24.50;71.90;;;;;;5015739;28;20113;-68
2023/07/21 12:34:04;;;;;;;5.55;2.17;;;24.40;72.20;;;;;;5020180;28;20117;-68
2023/07/21 12:36:30;;;;;;;8.98;2.10;;;24.30;72.90;;;;;;5011419;28;20088;-67
2023/07/21 12:38:57;;;;;;;4.53;2.05;;;24.30;72.50;;;;;;5025156;28;20091;-68
2023/07/21 12:41:23;;;;;;;4.57;1.88;;;24.50;71.30;;;;;;5016922;28;20033;-68
2023/07/21 12:43:48;;;;;;;3.67;2.15;;;24.50;74.30;;;;;;5015338;28;20084;-67
2023/07/21 12:46:14;;;;;;;9.73;2.13;;;24.40;73.90;;;;;;5020451;28;20119;-68
2023/07/21 12:48:42;;;;;;;3.88;2.22;;;24.70;74.80;;;;;;5023889;28;20525;-68